createdAt,value
2022-08-27T00:02:07.524Z,57.67
2022-08-27T00:04:36.829Z,57.05
2022-08-27T00:07:05.894Z,56.55
2022-08-27T00:12:19.135Z,57.00
2022-08-27T00:14:46.978Z,58.29
2022-08-27T00:17:16.149Z,58.75
2022-08-27T00:19:44.684Z,58.30
2022-08-27T00:22:12.893Z,59.79
2022-08-27T00:24:48.712Z,61.33
2022-08-27T00:27:18.171Z,62.26
2022-08-27T00:29:47.442Z,63.04
2022-08-27T00:32:16.537Z,61.97
2022-08-27T00:34:44.784Z,61.69
2022-08-27T00:37:12.757Z,64.27
2022-08-27T00:39:40.618Z,65.82
2022-08-27T00:42:10.088Z,65.33
2022-08-27T00:44:46.491Z,66.30
2022-08-27T00:47:20.328Z,64.98
2022-08-27T00:49:56.252Z,64.43
2022-08-27T00:52:40.913Z,65.49
2022-08-27T00:55:22.780Z,64.56
2022-08-27T00:58:03.314Z,65.59
2022-08-27T01:00:34.213Z,64.74
2022-08-27T01:03:02.553Z,64.66
2022-08-27T01:05:30.787Z,66.04
2022-08-27T01:08:06.066Z,69.04
2022-08-27T01:10:34.983Z,65.60
2022-08-27T01:13:03.091Z,66.15
2022-08-27T01:15:31.644Z,66.72
2022-08-27T01:18:01.288Z,66.71
2022-08-27T01:20:36.059Z,68.21
2022-08-27T01:23:25.622Z,67.89
2022-08-27T01:25:53.756Z,65.59
2022-08-27T01:28:23.640Z,63.41
2022-08-27T01:30:57.167Z,62.51
2022-08-27T01:33:25.280Z,62.71
2022-08-27T01:35:53.361Z,66.02
2022-08-27T01:38:30.937Z,64.04
2022-08-27T01:41:01.480Z,70.78
2022-08-27T01:43:31.613Z,67.51
2022-08-27T01:45:59.803Z,66.93
2022-08-27T01:48:30.583Z,66.52
2022-08-27T01:50:58.398Z,67.34
2022-08-27T01:53:27.723Z,67.95
2022-08-27T01:55:55.676Z,68.11
2022-08-27T01:58:27.273Z,68.84
2022-08-27T02:00:59.825Z,68.72
2022-08-27T02:03:28.038Z,68.43
2022-08-27T02:05:56.076Z,69.59
2022-08-27T02:08:24.250Z,69.78
2022-08-27T02:10:52.569Z,70.69
2022-08-27T02:13:20.430Z,71.61
2022-08-27T02:15:48.250Z,70.58
2022-08-27T02:18:16.823Z,70.73
2022-08-27T02:20:48.896Z,69.17
2022-08-27T02:23:18.493Z,71.49
2022-08-27T02:25:49.030Z,70.49
2022-08-27T02:28:17.234Z,68.65
2022-08-27T02:30:45.175Z,68.15
2022-08-27T02:33:13.895Z,69.72
2022-08-27T02:35:44.573Z,69.29
2022-08-27T02:38:14.456Z,69.16
2022-08-27T02:40:42.649Z,68.28
2022-08-27T02:43:15.822Z,71.30
2022-08-27T02:45:44.318Z,70.24
2022-08-27T02:48:12.688Z,67.63
2022-08-27T02:50:40.685Z,66.71
2022-08-27T02:53:09.210Z,68.79
2022-08-27T02:55:37.634Z,67.67
2022-08-27T02:58:05.644Z,70.98
2022-08-27T03:00:34.078Z,71.83
2022-08-27T03:03:03.089Z,68.41
2022-08-27T03:05:31.041Z,67.25
2022-08-27T03:08:00.284Z,67.89
2022-08-27T03:10:28.060Z,67.41
2022-08-27T03:12:57.563Z,65.23
2022-08-27T03:15:26.052Z,67.32
2022-08-27T03:18:12.379Z,71.02
2022-08-27T03:20:42.684Z,68.75
2022-08-27T03:23:11.545Z,65.63
2022-08-27T03:25:39.489Z,64.39
2022-08-27T03:28:22.400Z,65.67
2022-08-27T03:30:54.769Z,67.71
2022-08-27T03:33:23.218Z,65.50
2022-08-27T03:35:52.163Z,63.23
2022-08-27T03:38:20.719Z,65.10
2022-08-27T03:40:49.744Z,64.22
2022-08-27T03:43:19.388Z,63.59
2022-08-27T03:46:00.561Z,61.45
2022-08-27T03:48:32.226Z,64.09
2022-08-27T03:51:05.573Z,62.86
2022-08-27T03:53:33.744Z,67.12
2022-08-27T03:56:01.564Z,67.13
2022-08-27T03:58:29.457Z,63.02
2022-08-27T04:00:57.718Z,61.82
2022-08-27T04:03:25.922Z,60.39
2022-08-27T04:05:57.275Z,58.40
2022-08-27T04:08:26.547Z,57.75
2022-08-27T04:10:55.296Z,57.31
2022-08-27T04:13:24.117Z,56.95
2022-08-27T04:15:54.759Z,56.57
2022-08-27T04:18:22.916Z,56.34
2022-08-27T04:20:52.891Z,56.19
2022-08-27T04:23:21.819Z,56.10
2022-08-27T04:25:49.665Z,56.16
2022-08-27T04:28:18.877Z,56.00
2022-08-27T04:30:47.741Z,55.79
2022-08-27T04:36:04.662Z,55.60
2022-08-27T04:38:33.757Z,55.34
2022-08-27T04:41:22.758Z,55.25
2022-08-27T04:43:56.750Z,55.06
2022-08-27T04:46:29.061Z,55.09
2022-08-27T04:48:59.694Z,54.84
2022-08-27T04:51:29.408Z,54.72
2022-08-27T04:54:01.018Z,54.19
2022-08-27T04:56:35.064Z,53.34
2022-08-27T04:59:05.687Z,52.70
2022-08-27T05:01:33.981Z,52.08
2022-08-27T05:04:15.081Z,51.39
2022-08-27T05:06:45.783Z,50.75
2022-08-27T05:09:14.834Z,50.28
2022-08-27T05:11:44.207Z,50.33
2022-08-27T05:14:16.569Z,49.36
2022-08-27T05:16:44.903Z,49.37
2022-08-27T05:19:15.693Z,48.53
2022-08-27T05:21:51.267Z,47.91
2022-08-27T05:24:20.058Z,47.11
2022-08-27T05:26:48.594Z,46.83
2022-08-27T05:29:17.297Z,46.43
2022-08-27T05:31:48.262Z,46.50
2022-08-27T05:34:18.690Z,45.46
2022-08-27T05:36:53.858Z,44.89
2022-08-27T05:39:21.874Z,44.56
2022-08-27T05:41:49.816Z,44.06
2022-08-27T05:44:40.148Z,43.54
2022-08-27T05:47:06.296Z,43.56
2022-08-27T05:49:34.543Z,43.66
2022-08-27T05:52:02.587Z,43.66
2022-08-27T05:54:30.411Z,43.37
2022-08-27T05:56:58.788Z,43.02
2022-08-27T05:59:45.017Z,42.29
2022-08-27T06:02:13.380Z,42.12
2022-08-27T06:04:41.775Z,41.87
2022-08-27T06:07:11.336Z,41.90
2022-08-27T06:09:40.041Z,42.15
2022-08-27T06:12:10.713Z,41.86
2022-08-27T06:14:39.090Z,41.80
2022-08-27T06:17:07.067Z,41.20
2022-08-27T06:19:36.731Z,41.47
2022-08-27T06:22:09.795Z,41.00
2022-08-27T06:24:42.805Z,40.72
2022-08-27T06:27:14.597Z,40.21
2022-08-27T06:29:43.350Z,39.78
2022-08-27T06:32:12.421Z,39.53
2022-08-27T06:34:40.425Z,39.21
2022-08-27T06:37:08.880Z,38.87
2022-08-27T06:39:40.553Z,38.52
2022-08-27T06:42:12.790Z,38.44
2022-08-27T06:44:41.586Z,38.02
2022-08-27T06:47:10.308Z,37.58
2022-08-27T06:49:41.015Z,37.12
2022-08-27T06:52:09.477Z,36.77
2022-08-27T06:54:37.331Z,36.57
2022-08-27T06:57:05.319Z,36.37
2022-08-27T06:59:33.760Z,35.96
2022-08-27T07:02:01.949Z,35.70
2022-08-27T07:04:32.802Z,35.26
2022-08-27T07:07:02.766Z,35.19
2022-08-27T07:09:32.852Z,34.93
2022-08-27T07:12:01.809Z,34.75
2022-08-27T07:14:35.477Z,34.22
2022-08-27T07:17:10.728Z,33.87
2022-08-27T07:19:41.132Z,33.67
2022-08-27T07:22:09.761Z,33.32
2022-08-27T07:24:38.471Z,33.38
2022-08-27T07:27:07.031Z,33.55
2022-08-27T07:29:35.831Z,33.43
2022-08-27T07:32:04.960Z,33.07
2022-08-27T07:34:33.011Z,32.66
2022-08-27T07:37:03.851Z,32.25
2022-08-27T07:39:31.794Z,32.07
2022-08-27T07:42:18.477Z,31.82
2022-08-27T07:44:46.913Z,31.60
2022-08-27T07:47:14.911Z,31.00
2022-08-27T07:49:42.875Z,30.58
2022-08-27T07:52:12.193Z,30.77
2022-08-27T07:54:41.462Z,30.20
2022-08-27T07:57:12.665Z,30.08
2022-08-27T07:59:41.017Z,29.54
2022-08-27T08:04:55.102Z,29.28
2022-08-27T08:07:23.424Z,29.16
2022-08-27T08:09:51.417Z,30.00
2022-08-27T08:12:26.397Z,29.56
2022-08-27T08:14:58.224Z,29.34
2022-08-27T08:17:26.864Z,29.02
2022-08-27T08:20:17.474Z,28.48
2022-08-27T08:22:45.584Z,28.06
2022-08-27T08:25:14.511Z,28.35
2022-08-27T08:27:43.328Z,27.47
2022-08-27T08:30:15.705Z,27.46
2022-08-27T08:32:44.397Z,26.63
2022-08-27T08:35:12.696Z,27.72
2022-08-27T08:37:44.038Z,27.42
2022-08-27T08:40:31.450Z,26.59
2022-08-27T08:43:01.049Z,27.00
2022-08-27T08:45:35.080Z,26.48
2022-08-27T08:48:04.805Z,26.84
2022-08-27T08:50:44.965Z,26.24
2022-08-27T08:53:20.496Z,26.40
2022-08-27T08:55:53.394Z,25.10
2022-08-27T08:58:39.996Z,26.15
2022-08-27T09:01:10.451Z,26.17
2022-08-27T09:03:43.007Z,26.90
2022-08-27T09:06:21.634Z,27.40
2022-08-27T09:08:50.086Z,26.12
2022-08-27T09:11:40.085Z,25.39
2022-08-27T09:14:17.143Z,25.25
2022-08-27T09:16:45.127Z,21.90
2022-08-27T09:19:14.877Z,23.94
2022-08-27T09:21:46.235Z,24.41
2022-08-27T09:24:37.696Z,21.54
2022-08-27T09:27:05.919Z,18.42
2022-08-27T09:29:34.477Z,19.24
2022-08-27T09:32:10.354Z,18.46
2022-08-27T09:34:41.351Z,20.13
2022-08-27T09:37:21.124Z,24.43
2022-08-27T09:39:57.371Z,22.37
2022-08-27T09:43:02.335Z,24.29
2022-08-27T09:45:31.673Z,24.88
2022-08-27T09:48:15.433Z,21.31
2022-08-27T09:50:48.773Z,24.15
2022-08-27T09:53:46.123Z,17.65
2022-08-27T09:56:31.642Z,18.83
2022-08-27T09:59:21.046Z,23.22
2022-08-27T10:01:54.736Z,17.73
2022-08-27T10:04:50.485Z,23.77
2022-08-27T10:07:24.678Z,23.22
2022-08-27T10:10:08.952Z,24.33
2022-08-27T10:13:00.098Z,24.64
2022-08-27T10:15:43.232Z,21.88
2022-08-27T10:18:34.676Z,22.83
2022-08-27T10:21:19.746Z,21.78
2022-08-27T10:23:47.887Z,23.21
2022-08-27T10:26:33.279Z,22.01
2022-08-27T10:32:42.517Z,20.64
2022-08-27T10:35:19.655Z,18.98
2022-08-27T10:37:48.031Z,22.49
2022-08-27T10:40:40.334Z,19.27
2022-08-27T10:43:08.648Z,24.29
2022-08-27T10:45:54.870Z,23.85
2022-08-27T10:48:40.042Z,21.90
2022-08-27T10:51:32.747Z,18.31
2022-08-27T10:54:20.806Z,17.00
2022-08-27T10:59:51.549Z,16.68
2022-08-27T11:02:36.887Z,21.37
2022-08-27T11:05:20.144Z,23.00
2022-08-27T11:07:54.168Z,17.24
2022-08-27T11:10:28.948Z,23.00
2022-08-27T11:13:04.314Z,20.59
2022-08-27T11:15:37.295Z,16.98
2022-08-27T11:18:17.905Z,22.32
2022-08-27T11:20:54.200Z,20.09
2022-08-27T11:23:46.242Z,22.82
2022-08-27T11:26:15.159Z,17.94
2022-08-27T11:28:54.474Z,17.93
2022-08-27T11:31:33.605Z,23.82
2022-08-27T11:34:31.994Z,18.83
2022-08-27T11:37:05.842Z,23.16
2022-08-27T11:39:43.620Z,23.96
2022-08-27T11:42:20.206Z,18.09
2022-08-27T11:44:54.825Z,22.42
2022-08-27T11:47:26.320Z,17.63
2022-08-27T11:49:56.614Z,23.51
2022-08-27T11:52:31.842Z,17.83
2022-08-27T11:55:21.397Z,22.74
2022-08-27T12:00:53.920Z,18.54
2022-08-27T12:03:22.412Z,18.30
2022-08-27T12:05:53.264Z,23.20
2022-08-27T12:08:24.864Z,21.48
2022-08-27T12:11:17.985Z,21.66
2022-08-27T12:14:13.492Z,19.79
2022-08-27T12:17:01.564Z,22.45
2022-08-27T12:19:32.160Z,22.61
2022-08-27T12:22:34.720Z,22.10
2022-08-27T12:25:04.841Z,23.23
2022-08-27T12:27:37.354Z,21.61
2022-08-27T12:30:28.346Z,25.46
2022-08-27T12:32:58.332Z,23.11
2022-08-27T12:35:44.540Z,21.73
2022-08-27T12:38:13.064Z,18.47
2022-08-27T12:40:51.119Z,18.60
2022-08-27T12:43:27.020Z,19.58
2022-08-27T12:46:02.564Z,18.67
2022-08-27T12:49:02.753Z,20.54
2022-08-27T12:51:48.932Z,20.49
2022-08-27T12:54:33.389Z,21.70
2022-08-27T12:57:33.806Z,22.95
2022-08-27T13:00:24.152Z,22.83
2022-08-27T13:03:20.720Z,22.70
2022-08-27T13:05:51.525Z,21.91
2022-08-27T13:08:34.923Z,23.16
2022-08-27T13:11:18.184Z,22.96
2022-08-27T13:13:46.883Z,23.62
2022-08-27T13:16:19.303Z,22.50
2022-08-27T13:18:51.605Z,23.49
2022-08-27T13:21:28.591Z,22.68
2022-08-27T13:23:59.150Z,22.75
2022-08-27T13:26:32.022Z,22.54
2022-08-27T13:29:04.881Z,22.53
2022-08-27T13:31:34.880Z,23.02
2022-08-27T13:34:06.379Z,24.30
2022-08-27T13:36:37.048Z,24.07
2022-08-27T13:39:07.745Z,24.40
2022-08-27T13:41:38.976Z,23.98
2022-08-27T13:47:22.659Z,24.65
2022-08-27T13:49:51.740Z,23.84
2022-08-27T13:52:34.503Z,22.83
2022-08-27T13:55:09.828Z,22.16
2022-08-27T13:57:50.371Z,23.55
2022-08-27T14:00:27.465Z,24.53
2022-08-27T14:02:59.026Z,24.07
2022-08-27T14:05:30.489Z,24.67
2022-08-27T14:08:02.571Z,24.69
2022-08-27T14:10:41.249Z,25.94
2022-08-27T14:13:18.355Z,29.48
2022-08-27T14:15:52.391Z,28.12
2022-08-27T14:18:58.402Z,27.73
2022-08-27T14:21:24.281Z,28.67
2022-08-27T14:23:54.452Z,27.88
2022-08-27T14:26:23.094Z,28.34
2022-08-27T14:28:51.386Z,26.38
2022-08-27T14:31:21.172Z,27.04
2022-08-27T14:33:50.461Z,27.90
2022-08-27T14:36:20.707Z,29.32
2022-08-27T14:38:50.733Z,28.95
2022-08-27T14:41:21.634Z,29.44
2022-08-27T14:43:50.527Z,29.31
2022-08-27T14:46:28.241Z,28.98
2022-08-27T14:48:59.021Z,30.29
2022-08-27T14:51:32.952Z,29.93
2022-08-27T14:54:02.355Z,30.70
2022-08-27T14:56:31.609Z,30.58
2022-08-27T14:59:18.543Z,30.63
2022-08-27T15:01:47.286Z,30.94
2022-08-27T15:04:16.114Z,30.64
2022-08-27T15:06:45.255Z,31.49
2022-08-27T15:09:13.806Z,30.41
2022-08-27T15:11:42.133Z,31.61
2022-08-27T15:14:16.596Z,32.13
2022-08-27T15:16:45.102Z,31.57
2022-08-27T15:19:15.920Z,32.70
2022-08-27T15:21:47.548Z,33.08
2022-08-27T15:24:19.937Z,32.24
2022-08-27T15:26:49.194Z,32.48
2022-08-27T15:32:03.192Z,33.94
2022-08-27T15:34:31.689Z,32.77
2022-08-27T15:37:00.345Z,33.39
2022-08-27T15:39:29.803Z,33.62
2022-08-27T15:42:07.283Z,33.53
2022-08-27T15:44:37.827Z,33.06
2022-08-27T15:47:05.874Z,32.98
2022-08-27T15:49:33.882Z,34.01
2022-08-27T15:52:05.817Z,32.45
2022-08-27T15:54:34.181Z,34.56
2022-08-27T15:57:02.368Z,33.22
2022-08-27T15:59:33.520Z,34.99
2022-08-27T16:02:04.150Z,35.63
2022-08-27T16:04:35.911Z,35.00
2022-08-27T16:07:04.070Z,36.09
2022-08-27T16:09:32.541Z,35.67
2022-08-27T16:12:01.374Z,36.62
2022-08-27T16:14:29.344Z,36.39
2022-08-27T16:16:58.641Z,36.95
2022-08-27T16:19:26.915Z,36.35
2022-08-27T16:21:55.253Z,37.33
2022-08-27T16:24:23.695Z,36.36
2022-08-27T16:26:51.806Z,37.32
2022-08-27T16:29:19.737Z,37.34
2022-08-27T16:31:48.130Z,37.59
2022-08-27T16:34:21.977Z,38.26
2022-08-27T16:36:50.019Z,39.46
2022-08-27T16:39:17.912Z,39.45
2022-08-27T16:41:46.217Z,38.74
2022-08-27T16:44:16.165Z,39.00
2022-08-27T16:46:44.133Z,39.03
2022-08-27T16:49:30.644Z,40.02
2022-08-27T16:52:00.440Z,40.54
2022-08-27T16:54:30.348Z,40.65
2022-08-27T16:56:59.881Z,42.52
2022-08-27T16:59:28.238Z,42.43
2022-08-27T17:01:57.438Z,41.55
2022-08-27T17:04:31.243Z,41.79
2022-08-27T17:07:03.282Z,41.87
2022-08-27T17:09:32.588Z,40.96
2022-08-27T17:12:04.763Z,42.28
2022-08-27T17:14:40.532Z,42.54
2022-08-27T17:17:09.824Z,43.38
2022-08-27T17:19:38.212Z,43.03
2022-08-27T17:22:09.815Z,42.79
2022-08-27T17:24:38.197Z,43.10
2022-08-27T17:27:06.441Z,42.98
2022-08-27T17:29:34.640Z,42.77
2022-08-27T17:32:07.299Z,43.62
2022-08-27T17:34:36.383Z,42.97
2022-08-27T17:37:04.832Z,43.34
2022-08-27T17:39:32.977Z,43.22
2022-08-27T17:42:01.066Z,42.70
2022-08-27T17:44:33.730Z,42.97
2022-08-27T17:47:04.450Z,43.32
2022-08-27T17:49:33.417Z,43.99
2022-08-27T17:52:04.997Z,42.89
2022-08-27T17:54:42.711Z,42.23
2022-08-27T17:57:20.933Z,42.51
2022-08-27T17:59:50.669Z,42.54
2022-08-27T18:02:31.454Z,43.44
2022-08-27T18:05:00.404Z,44.15
2022-08-27T18:07:31.256Z,43.83
2022-08-27T18:09:59.846Z,45.98
2022-08-27T18:12:28.175Z,45.11
2022-08-27T18:15:14.675Z,44.47
2022-08-27T18:17:43.333Z,43.81
2022-08-27T18:20:14.217Z,44.86
2022-08-27T18:22:48.782Z,44.59
2022-08-27T18:25:20.243Z,44.65
2022-08-27T18:27:51.916Z,44.78
2022-08-27T18:30:20.880Z,45.07
2022-08-27T18:32:49.752Z,45.61
2022-08-27T18:35:24.039Z,46.44
2022-08-27T18:37:52.980Z,46.29
2022-08-27T18:40:23.802Z,46.37
2022-08-27T18:42:52.584Z,47.04
2022-08-27T18:45:26.973Z,48.77
2022-08-27T18:47:59.495Z,47.09
2022-08-27T18:50:28.092Z,46.63
2022-08-27T18:52:58.796Z,47.06
2022-08-27T18:55:28.534Z,46.89
2022-08-27T18:57:57.406Z,46.14
2022-08-27T19:00:27.335Z,47.71
2022-08-27T19:02:55.655Z,46.57
2022-08-27T19:05:27.123Z,48.21
2022-08-27T19:07:57.254Z,47.41
2022-08-27T19:13:12.624Z,49.39
2022-08-27T19:15:44.916Z,47.69
2022-08-27T19:18:16.233Z,47.49
2022-08-27T19:20:44.907Z,49.22
2022-08-27T19:23:13.106Z,49.60
2022-08-27T19:25:42.247Z,48.53
2022-08-27T19:28:10.823Z,48.58
2022-08-27T19:30:38.940Z,49.31
2022-08-27T19:33:07.093Z,48.45
2022-08-27T19:35:36.417Z,50.91
2022-08-27T19:38:05.055Z,50.99
2022-08-27T19:40:37.723Z,50.64
2022-08-27T19:43:05.913Z,51.19
2022-08-27T19:45:40.259Z,50.69
2022-08-27T19:48:09.294Z,50.47
2022-08-27T19:50:37.445Z,48.71
2022-08-27T19:53:05.668Z,47.97
2022-08-27T19:55:34.111Z,48.95
2022-08-27T19:58:02.284Z,51.61
2022-08-27T20:00:30.729Z,53.66
2022-08-27T20:02:59.143Z,54.31
2022-08-27T20:05:27.519Z,53.61
2022-08-27T20:07:55.628Z,52.84
2022-08-27T20:10:31.523Z,51.31
2022-08-27T20:13:06.520Z,52.26
2022-08-27T20:15:36.039Z,53.42
2022-08-27T20:18:07.511Z,52.55
2022-08-27T20:20:37.919Z,52.99
2022-08-27T20:23:07.177Z,51.38
2022-08-27T20:25:36.397Z,52.28
2022-08-27T20:28:34.973Z,50.96
2022-08-27T20:30:56.928Z,50.45
2022-08-27T20:33:27.324Z,50.66
2022-08-27T20:35:56.997Z,51.23
2022-08-27T20:38:25.641Z,52.91
2022-08-27T20:40:53.450Z,51.02
2022-08-27T20:43:21.289Z,50.33
2022-08-27T20:45:49.868Z,50.41
2022-08-27T20:48:17.896Z,52.75
2022-08-27T20:50:45.940Z,51.05
2022-08-27T20:53:14.480Z,50.79
2022-08-27T20:55:42.351Z,50.80
2022-08-27T20:58:29.014Z,50.91
2022-08-27T21:00:58.015Z,51.86
2022-08-27T21:03:26.213Z,51.27
2022-08-27T21:05:56.236Z,52.82
2022-08-27T21:08:24.541Z,51.73
2022-08-27T21:10:58.283Z,51.18
2022-08-27T21:13:28.609Z,50.60
2022-08-27T21:15:56.766Z,49.25
2022-08-27T21:18:29.666Z,49.86
2022-08-27T21:21:02.763Z,49.36
2022-08-27T21:23:31.170Z,49.83
2022-08-27T21:26:04.979Z,49.07
2022-08-27T21:28:32.975Z,50.36
2022-08-27T21:31:01.308Z,49.65
2022-08-27T21:33:29.290Z,49.04
2022-08-27T21:35:57.343Z,50.02
2022-08-27T21:38:26.382Z,48.78
2022-08-27T21:40:54.477Z,48.71
2022-08-27T21:43:22.569Z,48.81
2022-08-27T21:45:55.232Z,50.15
2022-08-27T21:48:23.616Z,49.30
2022-08-27T21:50:53.629Z,49.10
2022-08-27T21:53:22.748Z,49.93
2022-08-27T21:55:54.232Z,49.91
2022-08-27T21:58:26.240Z,50.30
2022-08-27T22:00:55.966Z,51.48
2022-08-27T22:03:25.573Z,52.98
2022-08-27T22:05:53.742Z,53.92
2022-08-27T22:08:23.016Z,54.05
2022-08-27T22:10:55.927Z,51.53
2022-08-27T22:13:24.264Z,51.80
2022-08-27T22:15:52.522Z,50.64
2022-08-27T22:18:20.534Z,53.22
2022-08-27T22:20:53.686Z,51.27
2022-08-27T22:23:22.538Z,51.60
2022-08-27T22:25:50.804Z,50.77
2022-08-27T22:28:19.581Z,52.90
2022-08-27T22:30:47.461Z,50.00
2022-08-27T22:33:16.161Z,50.55
2022-08-27T22:35:44.426Z,49.45
2022-08-27T22:38:12.542Z,49.75
2022-08-27T22:40:40.803Z,51.33
2022-08-27T22:43:09.653Z,50.63
2022-08-27T22:45:37.560Z,50.63
2022-08-27T22:48:05.457Z,51.14
2022-08-27T22:50:33.710Z,52.09
2022-08-27T22:53:01.605Z,50.81
2022-08-27T22:55:29.780Z,50.75
2022-08-27T22:57:58.000Z,51.69
2022-08-27T23:00:29.410Z,50.33
2022-08-27T23:02:58.229Z,51.07
2022-08-27T23:05:26.935Z,52.62
2022-08-27T23:07:55.471Z,52.65
2022-08-27T23:10:24.688Z,53.21
2022-08-27T23:12:54.388Z,53.61
2022-08-27T23:15:25.905Z,53.76
2022-08-27T23:17:55.806Z,54.03
2022-08-27T23:20:28.793Z,53.21
2022-08-27T23:22:57.605Z,52.16
2022-08-27T23:25:45.031Z,54.40
2022-08-27T23:28:14.986Z,52.61
2022-08-27T23:30:44.524Z,52.90
2022-08-27T23:35:59.526Z,54.54
2022-08-27T23:38:29.913Z,54.54
2022-08-27T23:40:59.147Z,53.00
2022-08-27T23:43:28.867Z,54.18
2022-08-27T23:46:00.909Z,52.42
2022-08-27T23:48:29.075Z,54.36
2022-08-27T23:50:57.088Z,52.65
2022-08-27T23:53:24.920Z,55.10
2022-08-27T23:55:53.139Z,55.14
2022-08-27T23:58:21.024Z,53.20
